Time;durP1;ratioP1;P1;durP2;ratioP2;P2;SDS_P1;SDS_P2;PMS_P1;PMS_P2;Temp;Humidity;BMP_temperature;BMP_pressure;BME280_temperature;BME280_humidity;BME280_pressure;Samples;Min_cycle;Max_cycle;Signal;HPM_P1;HPM_P2
2023/06/18 00:02:45;;;;;;;18.60;14.60;;;;;;;;;;6278972;28;20035;-74
2023/06/18 00:05:46;;;;;;;17.65;14.68;;;;;;;;;;6270381;28;20055;-74
2023/06/18 00:08:46;;;;;;;17.63;13.40;;;;;;;;;;6268736;28;20028;-74
2023/06/18 00:11:46;;;;;;;23.10;16.67;;;;;;;;;;6270563;28;20019;-74
2023/06/18 00:14:46;;;;;;;20.53;14.77;;;;;;;;;;6270202;28;20053;-74
2023/06/18 00:17:47;;;;;;;17.67;13.50;;;;;;;;;;6270635;28;20049;-75
2023/06/18 00:20:48;;;;;;;18.97;13.13;;;;;;;;;;6271026;28;20490;-75
2023/06/18 00:23:49;;;;;;;18.10;14.25;;;;;;;;;;6274889;28;20459;-90
2023/06/18 00:26:49;;;;;;;16.45;11.57;;;;;;;;;;6271350;28;20020;-87
2023/06/18 00:29:50;;;;;;;15.35;11.25;;;;;;;;;;6271408;28;20832;-90
2023/06/18 00:32:51;;;;;;;14.23;10.68;;;;;;;;;;6271019;28;20017;-89
2023/06/18 00:35:56;;;;;;;17.60;12.10;;;;;;;;;;6270878;28;20490;-89
2023/06/18 00:38:57;;;;;;;15.68;12.00;;;;;;;;;;6270449;28;20021;-87
2023/06/18 00:41:58;;;;;;;16.17;11.57;;;;;;;;;;6270529;28;20028;-85
2023/06/18 00:44:58;;;;;;;12.73;10.10;;;;;;;;;;6270785;28;20024;-85
2023/06/18 00:47:59;;;;;;;17.13;11.77;;;;;;;;;;6270188;28;20013;-86
2023/06/18 00:50:59;;;;;;;17.30;12.43;;;;;;;;;;6269895;28;20017;-88
2023/06/18 00:54:00;;;;;;;15.27;11.27;;;;;;;;;;6269496;28;20021;-89
2023/06/18 00:57:00;;;;;;;17.17;11.80;;;;;;;;;;6268396;28;20025;-85
2023/06/18 01:00:04;;;;;;;19.33;12.73;;;;;;;;;;6270402;28;20043;-85
2023/06/18 01:03:05;;;;;;;17.25;11.40;;;;;;;;;;6256408;28;20066;-86
2023/06/18 01:06:06;;;;;;;19.52;13.65;;;;;;;;;;6269488;28;20052;-87
2023/06/18 01:09:07;;;;;;;23.03;15.60;;;;;;;;;;6269493;28;20017;-87
2023/06/18 01:12:07;;;;;;;20.33;14.03;;;;;;;;;;6268798;28;20036;-74
2023/06/18 01:15:10;;;;;;;16.93;12.33;;;;;;;;;;6269271;28;20028;-74
2023/06/18 01:18:10;;;;;;;17.70;12.43;;;;;;;;;;6248207;28;20021;-74
2023/06/18 01:21:12;;;;;;;17.73;12.98;;;;;;;;;;6266505;28;20032;-74
2023/06/18 01:24:19;;;;;;;23.05;13.77;;;;;;;;;;6271731;28;20512;-74
2023/06/18 01:27:25;;;;;;;18.83;12.13;;;;;;;;;;6257101;28;20024;-75
2023/06/18 01:30:25;;;;;;;19.30;12.82;;;;;;;;;;6268760;28;20055;-74
2023/06/18 01:33:25;;;;;;;18.80;12.60;;;;;;;;;;6269540;28;20024;-85
2023/06/18 01:36:47;;;;;;;18.23;12.48;;;;;;;;;;6271753;28;20126;-87
2023/06/18 01:39:56;;;;;;;16.90;13.98;;;;;;;;;;6263174;28;20025;-88
2023/06/18 01:43:11;;;;;;;24.65;14.98;;;;;;;;;;6268740;28;20504;-85
2023/06/18 01:46:13;;;;;;;22.08;13.63;;;;;;;;;;6269498;28;20468;-86
2023/06/18 01:49:15;;;;;;;20.70;13.25;;;;;;;;;;6269229;28;20091;-85
2023/06/18 01:52:16;;;;;;;19.70;14.50;;;;;;;;;;6268552;28;20009;-87
2023/06/18 01:55:17;;;;;;;20.87;13.13;;;;;;;;;;6270879;28;20025;-87
2023/06/18 01:58:20;;;;;;;21.00;13.80;;;;;;;;;;6271319;28;20044;-86
2023/06/18 02:01:21;;;;;;;19.55;14.35;;;;;;;;;;6268999;28;20024;-84
2023/06/18 02:04:21;;;;;;;22.23;13.43;;;;;;;;;;6268599;28;20013;-86
2023/06/18 02:07:21;;;;;;;15.05;11.38;;;;;;;;;;6271746;28;20028;-84
2023/06/18 02:10:21;;;;;;;19.47;12.60;;;;;;;;;;6268817;28;20096;-85
2023/06/18 02:13:22;;;;;;;14.90;10.90;;;;;;;;;;6267883;28;20049;-85
2023/06/18 02:16:22;;;;;;;19.07;13.63;;;;;;;;;;6266643;28;20475;-87
2023/06/18 02:19:22;;;;;;;17.45;12.18;;;;;;;;;;6267960;28;20051;-87
2023/06/18 02:22:26;;;;;;;16.23;10.17;;;;;;;;;;6267712;28;20371;-74
2023/06/18 02:25:29;;;;;;;14.20;9.40;;;;;;;;;;6267951;28;20028;-73
2023/06/18 02:28:30;;;;;;;16.75;10.63;;;;;;;;;;6268794;28;20016;-74
2023/06/18 02:31:30;;;;;;;18.08;12.38;;;;;;;;;;6267782;28;20067;-74
2023/06/18 02:34:31;;;;;;;16.80;11.77;;;;;;;;;;6267278;28;20828;-74
2023/06/18 02:37:32;;;;;;;16.00;12.00;;;;;;;;;;6267167;28;20021;-74
2023/06/18 02:40:32;;;;;;;15.83;10.70;;;;;;;;;;6265827;28;20593;-74
2023/06/18 02:43:32;;;;;;;18.38;12.15;;;;;;;;;;6267199;28;20311;-83
2023/06/18 02:46:32;;;;;;;16.93;12.03;;;;;;;;;;6267292;28;20064;-83
2023/06/18 02:49:33;;;;;;;18.63;12.80;;;;;;;;;;6267414;28;20013;-83
2023/06/18 02:52:33;;;;;;;16.23;11.90;;;;;;;;;;6266909;28;20013;-83
2023/06/18 02:55:33;;;;;;;18.30;11.05;;;;;;;;;;6267648;28;20025;-81
2023/06/18 02:58:35;;;;;;;13.77;9.77;;;;;;;;;;6264579;28;20021;-81
2023/06/18 03:01:36;;;;;;;19.35;11.63;;;;;;;;;;6268153;28;20098;-83
2023/06/18 03:04:36;;;;;;;16.70;12.68;;;;;;;;;;6267610;28;20470;-82
2023/06/18 03:07:37;;;;;;;14.87;9.97;;;;;;;;;;6271755;28;20506;-81
2023/06/18 03:10:37;;;;;;;21.08;14.50;;;;;;;;;;6267182;28;20037;-82
2023/06/18 03:13:37;;;;;;;17.87;12.83;;;;;;;;;;6271705;28;20051;-84
2023/06/18 03:16:39;;;;;;;21.60;13.73;;;;;;;;;;6273463;28;20491;-83
2023/06/18 03:19:40;;;;;;;22.27;14.93;;;;;;;;;;6272546;28;20044;-84
2023/06/18 03:22:40;;;;;;;19.50;13.45;;;;;;;;;;6268157;28;20311;-83
2023/06/18 03:25:40;;;;;;;17.95;12.75;;;;;;;;;;6269398;28;20286;-83
2023/06/18 03:28:41;;;;;;;17.03;12.83;;;;;;;;;;6272603;28;20451;-82
2023/06/18 03:31:42;;;;;;;19.07;13.60;;;;;;;;;;6275387;28;20017;-84
2023/06/18 03:34:42;;;;;;;19.20;13.17;;;;;;;;;;6271623;28;20048;-83
2023/06/18 03:37:42;;;;;;;26.13;15.87;;;;;;;;;;6272241;28;20035;-83
2023/06/18 03:40:42;;;;;;;20.23;13.47;;;;;;;;;;6271648;28;20467;-84
2023/06/18 03:43:43;;;;;;;22.87;15.87;;;;;;;;;;6271635;28;20021;-83
2023/06/18 03:46:43;;;;;;;21.53;15.23;;;;;;;;;;6271473;28;20024;-84
2023/06/18 03:49:43;;;;;;;15.97;11.43;;;;;;;;;;6253163;28;20507;-84
2023/06/18 03:52:43;;;;;;;20.77;14.17;;;;;;;;;;6271459;28;20024;-84
2023/06/18 03:55:43;;;;;;;19.37;14.20;;;;;;;;;;6271251;28;20474;-84
2023/06/18 03:58:44;;;;;;;25.50;13.82;;;;;;;;;;6270651;28;20029;-83
2023/06/18 04:01:44;;;;;;;16.97;11.37;;;;;;;;;;6271782;28;20068;-74
2023/06/18 04:04:45;;;;;;;19.33;12.83;;;;;;;;;;6270547;28;20037;-74
2023/06/18 04:07:45;;;;;;;21.67;15.40;;;;;;;;;;6276787;28;20025;-74
2023/06/18 04:10:47;;;;;;;21.38;15.45;;;;;;;;;;6270615;28;20025;-74
2023/06/18 04:13:47;;;;;;;22.83;17.25;;;;;;;;;;6269968;28;20415;-74
2023/06/18 04:16:47;;;;;;;22.67;16.93;;;;;;;;;;6270695;28;20029;-74
2023/06/18 04:19:47;;;;;;;23.03;17.87;;;;;;;;;;6270372;28;20021;-74
2023/06/18 04:22:47;;;;;;;27.67;17.67;;;;;;;;;;6269522;28;20031;-74
2023/06/18 04:25:48;;;;;;;25.70;17.37;;;;;;;;;;6270374;28;20791;-74
2023/06/18 04:28:50;;;;;;;24.97;17.93;;;;;;;;;;6270141;28;20017;-74
2023/06/18 04:31:50;;;;;;;;;;;;;;;;;;6268635;28;20027;-74
2023/06/18 04:34:50;;;;;;;26.08;18.27;;;;;;;;;;6251811;28;19909;-74
2023/06/18 04:37:50;;;;;;;24.70;17.83;;;;;;;;;;6251393;28;20021;-74
2023/06/18 04:40:50;;;;;;;24.27;18.40;;;;;;;;;;6270347;28;20033;-74
2023/06/18 04:43:51;;;;;;;21.47;17.47;;;;;;;;;;6269866;28;20043;-74
2023/06/18 04:46:51;;;;;;;26.80;16.80;;;;;;;;;;6269738;28;20398;-74
2023/06/18 04:49:51;;;;;;;25.63;15.83;;;;;;;;;;6269662;28;20163;-75
2023/06/18 04:52:51;;;;;;;25.90;16.40;;;;;;;;;;6266656;28;20021;-75
2023/06/18 04:55:52;;;;;;;23.45;17.90;;;;;;;;;;6270021;28;20111;-74
2023/06/18 04:58:52;;;;;;;22.37;16.03;;;;;;;;;;6252782;28;20486;-75
2023/06/18 05:01:52;;;;;;;23.53;16.80;;;;;;;;;;6274999;28;20079;-74
2023/06/18 05:04:52;;;;;;;22.27;15.63;;;;;;;;;;6267182;28;20032;-74
2023/06/18 05:07:53;;;;;;;20.67;16.30;;;;;;;;;;6267905;28;20051;-74
2023/06/18 05:10:53;;;;;;;22.50;16.63;;;;;;;;;;6273154;28;20025;-75
2023/06/18 05:13:53;;;;;;;21.17;16.27;;;;;;;;;;6273243;28;20419;-75
2023/06/18 05:16:54;;;;;;;21.50;15.00;;;;;;;;;;6270657;28;20070;-74
2023/06/18 05:19:54;;;;;;;21.17;13.67;;;;;;;;;;6267700;28;20029;-75
2023/06/18 05:22:54;;;;;;;19.27;13.23;;;;;;;;;;6270102;28;20133;-75
2023/06/18 05:25:54;;;;;;;17.73;13.70;;;;;;;;;;6265826;28;20025;-75
2023/06/18 05:28:55;;;;;;;19.37;13.80;;;;;;;;;;6275915;28;20067;-75
2023/06/18 05:31:55;;;;;;;17.93;12.03;;;;;;;;;;6271022;28;20044;-75
2023/06/18 05:34:55;;;;;;;17.90;12.10;;;;;;;;;;6267176;28;20040;-75
2023/06/18 05:37:55;;;;;;;13.63;9.50;;;;;;;;;;6268649;28;20420;-75
2023/06/18 05:40:56;;;;;;;18.03;11.87;;;;;;;;;;6262449;28;20029;-75
2023/06/18 05:43:56;;;;;;;16.07;10.57;;;;;;;;;;6255596;28;20155;-76
2023/06/18 05:46:57;;;;;;;17.60;11.93;;;;;;;;;;6262879;28;20023;-75
2023/06/18 05:49:57;;;;;;;14.80;10.38;;;;;;;;;;6263754;28;20029;-75
2023/06/18 05:52:57;;;;;;;15.77;11.00;;;;;;;;;;6265256;28;20032;-75
2023/06/18 05:55:57;;;;;;;18.15;11.40;;;;;;;;;;6264216;28;20886;-75
2023/06/18 05:58:57;;;;;;;15.03;10.63;;;;;;;;;;6266081;28;20135;-75
2023/06/18 06:01:58;;;;;;;16.33;10.53;;;;;;;;;;6264937;28;20475;-75
2023/06/18 06:04:58;;;;;;;15.87;10.10;;;;;;;;;;6267988;28;20035;-75
2023/06/18 06:07:58;;;;;;;14.70;10.33;;;;;;;;;;6261982;28;20458;-75
2023/06/18 06:10:58;;;;;;;15.70;9.23;;;;;;;;;;6267732;28;20112;-75
2023/06/18 06:13:59;;;;;;;12.50;8.13;;;;;;;;;;6266114;28;20045;-75
2023/06/18 06:16:59;;;;;;;14.50;9.77;;;;;;;;;;6267164;28;20114;-75
2023/06/18 06:19:59;;;;;;;14.57;9.23;;;;;;;;;;6266274;28;20134;-75
2023/06/18 06:23:00;;;;;;;14.57;10.03;;;;;;;;;;6262078;28;20024;-75
2023/06/18 06:26:00;;;;;;;12.27;8.07;;;;;;;;;;6264566;28;20020;-75
2023/06/18 06:29:00;;;;;;;14.00;8.97;;;;;;;;;;6262597;28;20017;-75
2023/06/18 06:32:01;;;;;;;12.83;8.47;;;;;;;;;;6247773;28;20025;-76
2023/06/18 06:35:02;;;;;;;15.70;9.00;;;;;;;;;;6265802;28;20302;-76
2023/06/18 06:38:02;;;;;;;13.38;8.85;;;;;;;;;;6266421;28;20025;-76
2023/06/18 06:41:03;;;;;;;11.63;7.47;;;;;;;;;;6242861;28;20037;-73
2023/06/18 06:44:03;;;;;;;12.07;7.73;;;;;;;;;;6265321;28;20017;-74
2023/06/18 06:47:03;;;;;;;11.13;6.60;;;;;;;;;;6264327;28;20021;-74
2023/06/18 06:50:04;;;;;;;11.53;7.07;;;;;;;;;;6265732;28;20459;-74
2023/06/18 06:53:04;;;;;;;9.98;6.60;;;;;;;;;;6266434;28;20078;-74
2023/06/18 06:56:04;;;;;;;8.85;7.15;;;;;;;;;;6258590;28;20028;-73
2023/06/18 06:59:05;;;;;;;10.10;7.27;;;;;;;;;;6262355;28;20058;-73
2023/06/18 07:02:05;;;;;;;12.07;6.40;;;;;;;;;;6260743;28;20530;-88
2023/06/18 07:05:07;;;;;;;11.00;7.43;;;;;;;;;;6259358;28;20067;-88
2023/06/18 07:08:08;;;;;;;9.63;6.60;;;;;;;;;;6270503;28;20017;-85
2023/06/18 07:11:08;;;;;;;10.35;7.72;;;;;;;;;;6264561;28;20013;-88
2023/06/18 07:14:08;;;;;;;7.77;5.93;;;;;;;;;;6268265;28;20053;-88
2023/06/18 07:17:08;;;;;;;8.23;5.77;;;;;;;;;;6266687;28;20030;-88
2023/06/18 07:20:09;;;;;;;10.93;8.65;;;;;;;;;;6271920;28;20032;-83
2023/06/18 07:23:09;;;;;;;13.77;7.70;;;;;;;;;;6280337;28;20109;-87
2023/06/18 07:26:09;;;;;;;9.57;6.77;;;;;;;;;;6275931;28;20024;-90
2023/06/18 07:29:10;;;;;;;9.07;6.20;;;;;;;;;;6281806;28;20021;-88
2023/06/18 07:32:10;;;;;;;8.93;5.33;;;;;;;;;;6275693;28;20707;-91
2023/06/18 07:35:10;;;;;;;11.10;6.03;;;;;;;;;;6283126;28;20132;-90
2023/06/18 07:38:10;;;;;;;9.13;5.80;;;;;;;;;;6280363;28;20016;-89
2023/06/18 07:41:10;;;;;;;8.90;6.18;;;;;;;;;;6256608;28;20067;-86
2023/06/18 07:44:11;;;;;;;12.27;5.83;;;;;;;;;;6262113;28;20032;-75
2023/06/18 07:47:11;;;;;;;8.25;5.85;;;;;;;;;;6258310;28;20021;-76
2023/06/18 07:50:11;;;;;;;11.27;5.63;;;;;;;;;;6262729;28;20021;-77
2023/06/18 07:53:11;;;;;;;10.50;7.17;;;;;;;;;;6264772;28;20139;-76
2023/06/18 07:56:11;;;;;;;12.37;6.13;;;;;;;;;;6242373;28;20440;-76
2023/06/18 07:59:13;;;;;;;13.73;6.17;;;;;;;;;;6269920;28;20013;-76
2023/06/18 08:02:13;;;;;;;10.43;6.43;;;;;;;;;;6269071;28;20510;-76
2023/06/18 08:05:14;;;;;;;13.57;7.60;;;;;;;;;;6266536;28;20029;-75
2023/06/18 08:08:14;;;;;;;11.07;7.27;;;;;;;;;;6264204;28;20027;-77
2023/06/18 08:11:15;;;;;;;13.47;7.53;;;;;;;;;;6251469;28;20028;-88
2023/06/18 08:14:15;;;;;;;9.30;6.43;;;;;;;;;;6277479;28;20056;-91
2023/06/18 08:17:17;;;;;;;9.85;7.00;;;;;;;;;;6277094;28;20096;-87
2023/06/18 08:20:17;;;;;;;9.27;6.55;;;;;;;;;;6270949;28;20407;-84
2023/06/18 08:23:17;;;;;;;10.17;7.00;;;;;;;;;;6270035;28;20032;-85
2023/06/18 08:26:19;;;;;;;10.70;6.17;;;;;;;;;;6269312;28;20021;-87
2023/06/18 08:29:19;;;;;;;8.43;6.15;;;;;;;;;;6253077;28;20021;-91
2023/06/18 08:32:19;;;;;;;10.07;6.23;;;;;;;;;;6268906;28;20017;-86
2023/06/18 08:35:19;;;;;;;7.60;5.50;;;;;;;;;;6268256;28;20029;-88
2023/06/18 08:38:20;;;;;;;7.03;5.13;;;;;;;;;;6269835;28;20044;-86
2023/06/18 08:41:21;;;;;;;8.53;5.70;;;;;;;;;;6268418;28;20021;-86
2023/06/18 08:44:23;;;;;;;7.43;5.18;;;;;;;;;;6267350;28;20029;-88
2023/06/18 08:47:25;;;;;;;8.18;6.30;;;;;;;;;;6260440;28;20482;-84
2023/06/18 08:50:27;;;;;;;6.63;4.63;;;;;;;;;;6264508;28;20029;-87
2023/06/18 08:53:32;;;;;;;8.10;4.50;;;;;;;;;;6257585;28;20502;-85
2023/06/18 08:56:33;;;;;;;6.25;4.20;;;;;;;;;;6268855;28;20463;-84
2023/06/18 08:59:33;;;;;;;6.20;4.32;;;;;;;;;;6263326;28;20032;-85
2023/06/18 09:02:34;;;;;;;8.50;5.80;;;;;;;;;;6268046;28;20067;-86
2023/06/18 09:05:34;;;;;;;7.97;4.57;;;;;;;;;;6268055;28;20051;-85
2023/06/18 09:08:35;;;;;;;6.80;5.07;;;;;;;;;;6266538;28;20544;-86
2023/06/18 09:11:36;;;;;;;6.50;4.95;;;;;;;;;;6261407;28;20017;-75
2023/06/18 09:14:36;;;;;;;6.63;5.07;;;;;;;;;;6260294;28;20046;-75
2023/06/18 09:17:39;;;;;;;7.83;5.27;;;;;;;;;;6267158;28;20367;-75
2023/06/18 09:20:40;;;;;;;8.57;5.25;;;;;;;;;;6260611;28;20524;-76
2023/06/18 09:23:40;;;;;;;10.27;5.40;;;;;;;;;;6267056;28;20021;-75
2023/06/18 09:26:41;;;;;;;7.93;5.47;;;;;;;;;;6263379;28;20633;-75
2023/06/18 09:29:41;;;;;;;8.97;6.00;;;;;;;;;;6267113;28;20020;-75
2023/06/18 09:32:47;;;;;;;10.40;5.78;;;;;;;;;;6267557;28;20021;-75
2023/06/18 09:35:57;;;;;;;7.78;6.05;;;;;;;;;;6269458;28;20017;-75
2023/06/18 09:38:57;;;;;;;8.32;5.88;;;;;;;;;;6264798;28;20048;-75
2023/06/18 09:42:03;;;;;;;10.82;5.40;;;;;;;;;;6273535;28;20024;-75
2023/06/18 09:45:04;;;;;;;7.90;5.13;;;;;;;;;;6250607;28;20017;-76
2023/06/18 09:48:04;;;;;;;6.83;4.30;;;;;;;;;;6262271;28;20028;-75
2023/06/18 09:51:05;;;;;;;6.00;4.50;;;;;;;;;;6265222;28;20599;-75
2023/06/18 09:54:05;;;;;;;7.60;4.70;;;;;;;;;;6265294;28;20029;-74
2023/06/18 09:57:06;;;;;;;6.97;5.17;;;;;;;;;;6267752;28;20017;-74
2023/06/18 10:00:11;;;;;;;8.95;6.05;;;;;;;;;;6267604;28;20021;-75
2023/06/18 10:03:11;;;;;;;9.48;5.97;;;;;;;;;;6270906;28;20017;-75
2023/06/18 10:06:14;;;;;;;9.27;5.53;;;;;;;;;;6267899;28;20395;-76
2023/06/18 10:09:16;;;;;;;10.70;6.78;;;;;;;;;;6267748;28;20072;-75
2023/06/18 10:12:17;;;;;;;7.68;5.15;;;;;;;;;;6267598;28;20579;-75
2023/06/18 10:15:18;;;;;;;8.15;5.97;;;;;;;;;;6267461;28;20867;-76
2023/06/18 10:18:22;;;;;;;;;;;;;;;;;;6267330;28;20434;-76
2023/06/18 10:21:24;;;;;;;8.27;5.07;;;;;;;;;;6264864;28;19908;-84
2023/06/18 10:24:28;;;;;;;6.10;4.95;;;;;;;;;;6268527;28;20025;-87
2023/06/18 10:27:29;;;;;;;11.27;6.18;;;;;;;;;;6267638;28;20045;-87
2023/06/18 10:30:29;;;;;;;10.13;6.07;;;;;;;;;;6257748;28;20013;-88
2023/06/18 10:33:33;;;;;;;11.10;6.40;;;;;;;;;;6260577;28;20055;-87
2023/06/18 10:36:33;;;;;;;8.52;6.32;;;;;;;;;;6260413;28;20115;-86
2023/06/18 10:39:34;;;;;;;7.60;5.60;;;;;;;;;;6261046;28;20021;-86
2023/06/18 10:42:34;;;;;;;13.03;6.17;;;;;;;;;;6265416;28;20263;-88
2023/06/18 10:45:35;;;;;;;6.68;5.32;;;;;;;;;;6268350;28;20394;-88
2023/06/18 10:48:35;;;;;;;6.30;4.47;;;;;;;;;;6265492;28;20104;-85
2023/06/18 10:51:35;;;;;;;6.50;5.17;;;;;;;;;;6266302;28;20016;-86
2023/06/18 10:54:38;;;;;;;9.93;5.60;;;;;;;;;;6263267;28;20044;-86
2023/06/18 10:57:38;;;;;;;8.48;3.78;;;;;;;;;;6264474;28;20943;-85
2023/06/18 11:00:39;;;;;;;;;;;;;;;;;;6256759;28;20022;-81
2023/06/18 11:03:40;;;;;;;7.95;5.63;;;;;;;;;;6263668;28;20444;-88
2023/06/18 11:06:40;;;;;;;8.23;5.82;;;;;;;;;;6265193;28;20028;-86
2023/06/18 11:09:47;;;;;;;12.33;6.67;;;;;;;;;;6265349;28;20123;-86
2023/06/18 11:12:48;;;;;;;10.50;6.88;;;;;;;;;;6264056;28;20037;-85
2023/06/18 11:16:10;;;;;;;11.45;6.75;;;;;;;;;;6264100;28;20025;-89
2023/06/18 11:19:10;;;;;;;;;;;;;;;;;;6265144;28;20017;-89
2023/06/18 11:22:10;;;;;;;10.35;5.95;;;;;;;;;;6265039;28;19947;-87
2023/06/18 11:25:12;;;;;;;8.38;5.13;;;;;;;;;;6259321;28;20037;-88
2023/06/18 11:28:13;;;;;;;;;;;;;;;;;;6271837;28;20470;-87
2023/06/18 11:31:13;;;;;;;7.65;5.90;;;;;;;;;;6265118;28;19916;-76
2023/06/18 11:34:14;;;;;;;7.97;4.50;;;;;;;;;;6276573;28;20043;-86
2023/06/18 11:37:15;;;;;;;6.75;4.40;;;;;;;;;;6270615;28;20267;-87
2023/06/18 11:40:15;;;;;;;5.65;3.85;;;;;;;;;;6268990;28;20029;-87
2023/06/18 11:43:15;;;;;;;7.43;4.33;;;;;;;;;;6270555;28;20028;-86
2023/06/18 11:46:34;;;;;;;6.40;4.53;;;;;;;;;;6271922;28;20025;-89
2023/06/18 11:49:36;;;;;;;121.25;67.18;;;;;;;;;;6274558;28;20071;-88
2023/06/18 11:52:37;;;;;;;10.32;5.88;;;;;;;;;;6271954;28;20023;-83
2023/06/18 11:55:38;;;;;;;29.50;21.03;;;;;;;;;;6267011;28;20482;-84
2023/06/18 11:58:38;;;;;;;;;;;;;;;;;;6272195;28;20035;-86
2023/06/18 12:01:38;;;;;;;6.95;4.47;;;;;;;;;;6271575;28;19936;-84
2023/06/18 12:04:39;;;;;;;5.60;4.00;;;;;;;;;;6270215;28;20021;-88
2023/06/18 12:07:41;;;;;;;7.40;4.78;;;;;;;;;;6274243;28;20013;-90
2023/06/18 12:10:43;;;;;;;7.00;5.38;;;;;;;;;;6279174;28;20017;-90
2023/06/18 12:13:46;;;;;;;7.80;5.07;;;;;;;;;;6277812;28;20045;-89
2023/06/18 12:16:48;;;;;;;7.28;5.55;;;;;;;;;;6276145;28;20013;-89
2023/06/18 12:19:53;;;;;;;8.18;5.28;;;;;;;;;;6274011;28;20031;-90
2023/06/18 12:22:58;;;;;;;8.57;5.20;;;;;;;;;;6271448;28;20533;-89
2023/06/18 12:25:58;;;;;;;8.75;5.32;;;;;;;;;;6262573;28;20100;-81
2023/06/18 12:28:58;;;;;;;6.40;4.50;;;;;;;;;;6288053;28;20054;-86
2023/06/18 12:32:02;;;;;;;7.87;5.13;;;;;;;;;;6277402;28;20025;-84
2023/06/18 12:35:13;;;;;;;6.63;4.60;;;;;;;;;;6291741;28;20040;-85
2023/06/18 12:38:14;;;;;;;6.80;4.20;;;;;;;;;;6265962;28;20021;-84
2023/06/18 12:41:25;;;;;;;8.00;3.95;;;;;;;;;;6268742;28;20025;-85
2023/06/18 12:44:27;;;;;;;5.88;3.60;;;;;;;;;;6265987;28;20029;-87
2023/06/18 12:47:27;;;;;;;4.45;3.58;;;;;;;;;;6262185;28;20096;-88
2023/06/18 12:50:27;;;;;;;9.20;2.95;;;;;;;;;;6265489;28;20048;-85
2023/06/18 12:53:28;;;;;;;6.78;3.53;;;;;;;;;;6263081;28;20032;-74
2023/06/18 12:56:28;;;;;;;3.83;3.03;;;;;;;;;;6264309;28;20025;-74
2023/06/18 12:59:28;;;;;;;4.50;3.67;;;;;;;;;;6260495;28;20013;-74
2023/06/18 13:02:28;;;;;;;5.73;3.90;;;;;;;;;;6267695;28;20593;-74
2023/06/18 13:05:28;;;;;;;;;;;;;;;;;;6271736;28;20020;-75
2023/06/18 13:08:29;;;;;;;7.15;5.07;;;;;;;;;;6267559;28;19919;-74
2023/06/18 13:11:29;;;;;;;;;;;;;;;;;;6262865;28;20398;-74
2023/06/18 13:14:30;;;;;;;7.13;4.70;;;;;;;;;;6249624;28;19921;-74
2023/06/18 13:17:30;;;;;;;;;;;;;;;;;;6250357;28;20021;-75
2023/06/18 13:20:30;;;;;;;9.35;4.72;;;;;;;;;;6250462;28;19905;-77
2023/06/18 13:23:31;;;;;;;;;;;;;;;;;;6269326;28;20025;-74
2023/06/18 13:26:31;;;;;;;5.10;4.22;;;;;;;;;;6267948;28;19908;-76
2023/06/18 13:29:32;;;;;;;5.53;4.03;;;;;;;;;;6268110;28;20024;-76
2023/06/18 13:32:32;;;;;;;7.47;4.35;;;;;;;;;;6261244;28;20021;-76
2023/06/18 13:35:32;;;;;;;6.07;3.58;;;;;;;;;;6267304;28;20021;-76
2023/06/18 13:38:33;;;;;;;6.23;4.20;;;;;;;;;;6266726;28;20017;-77
2023/06/18 13:41:34;;;;;;;7.35;4.40;;;;;;;;;;6250101;28;20247;-76
2023/06/18 13:44:34;;;;;;;4.35;3.38;;;;;;;;;;6265722;28;20060;-76
2023/06/18 13:47:34;;;;;;;4.47;2.70;;;;;;;;;;6265819;28;20086;-76
2023/06/18 13:50:35;;;;;;;4.10;3.45;;;;;;;;;;6267285;28;20017;-76
2023/06/18 13:53:35;;;;;;;7.22;3.60;;;;;;;;;;6265408;28;20409;-84
2023/06/18 13:56:35;;;;;;;10.17;3.50;;;;;;;;;;6262716;28;20017;-85
2023/06/18 13:59:35;;;;;;;6.57;3.90;;;;;;;;;;6267931;28;20013;-85
2023/06/18 14:02:36;;;;;;;6.97;4.00;;;;;;;;;;6264347;28;20083;-86
2023/06/18 14:05:36;;;;;;;8.00;4.40;;;;;;;;;;6262940;28;20027;-86
2023/06/18 14:08:36;;;;;;;;;;;;;;;;;;6260938;28;20275;-85
2023/06/18 14:11:37;;;;;;;6.60;4.55;;;;;;;;;;6247961;28;19938;-88
2023/06/18 14:14:37;;;;;;;5.70;4.00;;;;;;;;;;6248098;28;20049;-88
2023/06/18 14:17:37;;;;;;;;;;;;;;;;;;6266941;28;20442;-83
2023/06/18 14:20:38;;;;;;;6.55;4.32;;;;;;;;;;6266719;28;19920;-85
2023/06/18 14:23:38;;;;;;;5.87;4.27;;;;;;;;;;6267179;28;20025;-84
2023/06/18 14:26:38;;;;;;;4.70;3.80;;;;;;;;;;6262347;28;20401;-88
2023/06/18 14:29:38;;;;;;;6.05;3.58;;;;;;;;;;6263665;28;20005;-88
2023/06/18 14:32:38;;;;;;;;;;;;;;;;;;6264306;28;20086;-80
2023/06/18 14:35:38;;;;;;;5.18;3.67;;;;;;;;;;6263932;28;20003;-85
2023/06/18 14:38:39;;;;;;;4.78;3.20;;;;;;;;;;6265167;28;20021;-85
2023/06/18 14:41:39;;;;;;;;;;;;;;;;;;6261138;28;20369;-88
2023/06/18 14:44:39;;;;;;;5.25;3.30;;;;;;;;;;6261327;28;19917;-86
2023/06/18 14:47:40;;;;;;;4.17;3.27;;;;;;;;;;6268048;28;20487;-79
2023/06/18 14:50:43;;;;;;;5.53;3.50;;;;;;;;;;6243865;28;20054;-85
2023/06/18 14:53:51;;;;;;;5.35;3.63;;;;;;;;;;6265604;28;20021;-84
2023/06/18 14:56:52;;;;;;;6.32;3.75;;;;;;;;;;6261750;28;20059;-86
2023/06/18 14:59:53;;;;;;;;;;;;;;;;;;6268090;28;20040;-85
2023/06/18 15:02:54;;;;;;;;;;;;;;;;;;6267511;28;19919;-84
2023/06/18 15:05:55;;;;;;;5.90;3.80;;;;;;;;;;6267782;28;19912;-82
2023/06/18 15:08:55;;;;;;;5.25;3.72;;;;;;;;;;6274879;28;20028;-83
2023/06/18 15:11:55;;;;;;;9.60;3.97;;;;;;;;;;6254647;28;20115;-84
2023/06/18 15:14:55;;;;;;;6.00;4.55;;;;;;;;;;6271935;28;20025;-83
2023/06/18 15:17:56;;;;;;;4.33;3.87;;;;;;;;;;6273900;28;20037;-85
2023/06/18 15:20:57;;;;;;;6.18;4.47;;;;;;;;;;6273321;28;20395;-85
2023/06/18 15:23:57;;;;;;;5.40;4.10;;;;;;;;;;6266820;28;20063;-86
2023/06/18 15:26:59;;;;;;;6.35;4.85;;;;;;;;;;6270973;28;20387;-82
2023/06/18 15:29:59;;;;;;;8.45;5.18;;;;;;;;;;6273629;28;20515;-86
2023/06/18 15:32:59;;;;;;;7.60;4.87;;;;;;;;;;6276760;28;20016;-85
2023/06/18 15:35:59;;;;;;;6.63;4.33;;;;;;;;;;6275087;28;20048;-85
2023/06/18 15:39:00;;;;;;;9.02;5.50;;;;;;;;;;6276206;28;20124;-86
2023/06/18 15:42:00;;;;;;;7.67;5.13;;;;;;;;;;6273188;28;20028;-84
2023/06/18 15:45:00;;;;;;;8.90;5.57;;;;;;;;;;6272894;28;20490;-82
2023/06/18 15:48:00;;;;;;;8.98;4.90;;;;;;;;;;6261209;28;20021;-84
2023/06/18 15:51:01;;;;;;;;;;;;;;;;;;6258290;28;20475;-84
2023/06/18 15:54:02;;;;;;;7.93;5.15;;;;;;;;;;6268337;28;19913;-85
2023/06/18 15:57:02;;;;;;;5.70;4.03;;;;;;;;;;6252470;28;20536;-86
2023/06/18 16:00:03;;;;;;;7.30;4.75;;;;;;;;;;6258762;28;20070;-87
2023/06/18 16:03:03;;;;;;;6.20;4.50;;;;;;;;;;6275332;28;20071;-85
2023/06/18 16:06:03;;;;;;;7.53;4.97;;;;;;;;;;6274530;28;20037;-86
2023/06/18 16:09:04;;;;;;;6.77;4.70;;;;;;;;;;6276464;28;20607;-85
2023/06/18 16:12:04;;;;;;;6.05;4.07;;;;;;;;;;6256071;28;20045;-86
2023/06/18 16:15:04;;;;;;;6.15;5.10;;;;;;;;;;6267830;28;20020;-85
2023/06/18 16:18:08;;;;;;;6.85;4.90;;;;;;;;;;6272591;28;20582;-85
2023/06/18 16:21:09;;;;;;;5.35;4.80;;;;;;;;;;6269825;28;20386;-84
2023/06/18 16:24:10;;;;;;;5.80;4.75;;;;;;;;;;6268746;28;20036;-84
2023/06/18 16:27:10;;;;;;;8.18;5.07;;;;;;;;;;6264387;28;20115;-85
2023/06/18 16:30:11;;;;;;;5.57;4.70;;;;;;;;;;6261221;28;20464;-83
2023/06/18 16:33:11;;;;;;;7.70;4.15;;;;;;;;;;6270650;28;20024;-85
2023/06/18 16:36:11;;;;;;;7.47;4.33;;;;;;;;;;6271313;28;20025;-84
2023/06/18 16:39:13;;;;;;;10.20;5.40;;;;;;;;;;6268564;28;20469;-81
2023/06/18 16:42:13;;;;;;;5.72;4.72;;;;;;;;;;6265211;28;20020;-85
2023/06/18 16:45:13;;;;;;;6.63;4.80;;;;;;;;;;6261599;28;20025;-86
2023/06/18 16:48:13;;;;;;;5.72;4.53;;;;;;;;;;6261568;28;20067;-86
2023/06/18 16:51:14;;;;;;;7.90;4.83;;;;;;;;;;6271689;28;20048;-86
2023/06/18 16:54:14;;;;;;;6.43;4.82;;;;;;;;;;6267003;28;20273;-85
2023/06/18 16:57:15;;;;;;;7.68;5.15;;;;;;;;;;6249535;28;20047;-84
2023/06/18 17:00:15;;;;;;;9.33;4.63;;;;;;;;;;6277042;28;20120;-84
2023/06/18 17:03:15;;;;;;;7.50;4.70;;;;;;;;;;6271471;28;20324;-80
2023/06/18 17:06:15;;;;;;;5.30;4.53;;;;;;;;;;6269719;28;20066;-84
2023/06/18 17:09:17;;;;;;;6.95;4.72;;;;;;;;;;6266106;28;20024;-84
2023/06/18 17:12:17;;;;;;;7.32;5.00;;;;;;;;;;6259350;28;20503;-86
2023/06/18 17:15:17;;;;;;;5.73;4.60;;;;;;;;;;6263311;28;20025;-85
2023/06/18 17:18:18;;;;;;;8.38;4.80;;;;;;;;;;6266813;28;20070;-83
2023/06/18 17:21:19;;;;;;;7.33;4.37;;;;;;;;;;6265879;28;20112;-86
2023/06/18 17:24:19;;;;;;;6.55;4.80;;;;;;;;;;6264039;28;20025;-88
2023/06/18 17:27:22;;;;;;;6.95;4.20;;;;;;;;;;6264373;28;20051;-86
2023/06/18 17:30:22;;;;;;;6.28;4.28;;;;;;;;;;6263742;28;20497;-85
2023/06/18 17:33:23;;;;;;;5.97;4.95;;;;;;;;;;6260640;28;20029;-86
2023/06/18 17:36:23;;;;;;;5.40;3.90;;;;;;;;;;6250844;28;20024;-86
2023/06/18 17:39:23;;;;;;;4.30;3.90;;;;;;;;;;6269914;28;20020;-84
2023/06/18 17:42:24;;;;;;;4.82;3.80;;;;;;;;;;6269608;28;20025;-86
2023/06/18 17:45:25;;;;;;;5.22;4.32;;;;;;;;;;6269868;28;20074;-86
2023/06/18 17:48:25;;;;;;;7.65;4.47;;;;;;;;;;6266010;28;20028;-85
2023/06/18 17:51:25;;;;;;;8.43;4.68;;;;;;;;;;6267391;28;20107;-86
2023/06/18 17:54:25;;;;;;;5.47;4.00;;;;;;;;;;6266296;28;20065;-86
2023/06/18 17:57:26;;;;;;;5.88;4.57;;;;;;;;;;6264424;28;20889;-86
2023/06/18 18:00:26;;;;;;;;;;;;;;;;;;6268076;28;20098;-86